createdAt,value
2019-02-12T00:00:28.721Z,2.20
2019-02-12T00:02:58.109Z,2.30
2019-02-12T00:05:27.401Z,2.40
2019-02-12T00:07:57.070Z,2.40
2019-02-12T00:10:26.442Z,2.40
2019-02-12T00:12:55.854Z,2.40
2019-02-12T00:15:25.226Z,2.40
2019-02-12T00:17:54.593Z,2.30
2019-02-12T00:20:23.986Z,2.30
2019-02-12T00:22:53.353Z,2.30
2019-02-12T00:25:22.749Z,2.40
2019-02-12T00:27:52.464Z,2.40
2019-02-12T00:30:21.869Z,2.30
2019-02-12T00:32:51.245Z,2.30
2019-02-12T00:35:20.641Z,2.30
2019-02-12T00:37:50.006Z,2.30
2019-02-12T00:40:19.724Z,2.30
2019-02-12T00:42:49.419Z,2.30
2019-02-12T00:45:18.818Z,2.40
2019-02-12T00:47:48.205Z,2.40
2019-02-12T00:50:17.605Z,2.40
2019-02-12T00:52:47.315Z,2.40
2019-02-12T00:55:16.719Z,2.50
2019-02-12T00:57:46.079Z,2.40
2019-02-12T01:00:15.478Z,2.50
2019-02-12T01:02:44.958Z,2.50
2019-02-12T01:05:14.725Z,2.40
2019-02-12T01:07:44.117Z,2.50
2019-02-12T01:10:13.490Z,2.60
2019-02-12T01:12:42.902Z,2.60
2019-02-12T01:15:13.161Z,2.70
2019-02-12T01:17:42.641Z,2.70
2019-02-12T01:20:13.132Z,2.80
2019-02-12T01:22:42.638Z,2.70
2019-02-12T01:25:12.479Z,2.70
2019-02-12T01:27:42.013Z,2.70
2019-02-12T01:30:16.925Z,2.60
2019-02-12T01:32:46.465Z,2.60
2019-02-12T01:35:15.871Z,2.60
2019-02-12T01:37:45.577Z,2.60
2019-02-12T01:40:15.245Z,2.60
2019-02-12T01:42:44.636Z,2.60
2019-02-12T01:45:14.362Z,2.50
2019-02-12T01:47:43.754Z,2.60
2019-02-12T01:50:14.275Z,2.60
2019-02-12T01:52:43.830Z,2.70
2019-02-12T01:55:13.485Z,2.70
2019-02-12T01:57:43.238Z,2.70
2019-02-12T02:00:14.477Z,2.70
2019-02-12T02:02:43.966Z,2.60
2019-02-12T02:05:14.105Z,2.50
2019-02-12T02:07:44.242Z,2.40
2019-02-12T02:10:16.218Z,2.30
2019-02-12T02:12:46.424Z,2.30
2019-02-12T02:15:16.668Z,2.20
2019-02-12T02:17:47.614Z,2.20
2019-02-12T02:20:17.868Z,2.30
2019-02-12T02:22:47.645Z,2.20
2019-02-12T02:25:17.447Z,2.10
2019-02-12T02:27:47.093Z,2.10
2019-02-12T02:30:16.962Z,2.10
2019-02-12T02:32:47.297Z,2.20
2019-02-12T02:35:17.281Z,2.20
2019-02-12T02:37:47.004Z,2.20
2019-02-12T02:40:16.731Z,2.20
2019-02-12T02:42:46.112Z,2.30
2019-02-12T02:45:15.787Z,2.20
2019-02-12T02:47:45.521Z,2.30
2019-02-12T02:50:15.338Z,2.30
2019-02-12T02:52:44.984Z,2.30
2019-02-12T02:55:14.613Z,2.30
2019-02-12T02:57:44.054Z,2.30
2019-02-12T03:00:13.626Z,2.40
2019-02-12T03:02:43.305Z,2.30
2019-02-12T03:05:12.701Z,2.40
2019-02-12T03:07:42.365Z,2.30
2019-02-12T03:10:11.757Z,2.40
2019-02-12T03:12:41.158Z,2.30
2019-02-12T03:15:10.952Z,2.30
2019-02-12T03:17:40.289Z,2.20
2019-02-12T03:20:10.778Z,2.20
2019-02-12T03:22:40.192Z,2.20
2019-02-12T03:25:10.027Z,2.20
2019-02-12T03:27:39.477Z,2.20
2019-02-12T03:30:09.978Z,2.20
2019-02-12T03:32:39.647Z,2.20
2019-02-12T03:35:09.390Z,2.20
2019-02-12T03:37:38.787Z,2.20
2019-02-12T03:40:09.421Z,2.20
2019-02-12T03:42:38.728Z,2.20
2019-02-12T03:45:08.869Z,2.20
2019-02-12T03:47:38.274Z,2.10
2019-02-12T03:50:08.225Z,2.20
2019-02-12T03:52:37.913Z,2.20
2019-02-12T03:55:08.462Z,2.30
2019-02-12T03:57:38.205Z,2.30
2019-02-12T04:00:09.965Z,2.30
2019-02-12T04:02:55.902Z,2.30
2019-02-12T04:05:25.385Z,2.30
2019-02-12T04:07:54.819Z,2.40
2019-02-12T04:10:24.482Z,2.40
2019-02-12T04:12:53.900Z,2.40
2019-02-12T04:15:23.262Z,2.40
2019-02-12T04:17:52.636Z,2.40
2019-02-12T04:20:22.021Z,2.40
2019-02-12T04:22:51.393Z,2.40
2019-02-12T04:25:20.790Z,2.40
2019-02-12T04:27:50.850Z,2.40
2019-02-12T04:30:20.235Z,2.40
2019-02-12T04:32:49.605Z,2.40
2019-02-12T04:35:19.002Z,2.40
2019-02-12T04:37:48.768Z,2.40
2019-02-12T04:40:18.134Z,2.50
2019-02-12T04:42:47.533Z,2.40
2019-02-12T04:45:16.898Z,2.50
2019-02-12T04:47:46.328Z,2.40
2019-02-12T04:50:15.786Z,2.40
2019-02-12T04:52:45.704Z,2.30
2019-02-12T04:55:15.486Z,2.30
2019-02-12T04:57:44.895Z,2.30
2019-02-12T05:00:15.496Z,2.30
2019-02-12T05:02:45.066Z,2.30
2019-02-12T05:05:14.554Z,2.30
2019-02-12T05:07:43.918Z,2.30
2019-02-12T05:10:15.017Z,2.30
2019-02-12T05:12:44.395Z,2.40
2019-02-12T05:15:14.054Z,2.40
2019-02-12T05:17:43.424Z,2.40
2019-02-12T05:20:13.312Z,2.40
2019-02-12T05:22:43.758Z,2.40
2019-02-12T05:25:14.004Z,2.40
2019-02-12T05:27:43.415Z,2.50
2019-02-12T05:30:12.961Z,2.50
2019-02-12T05:32:42.376Z,2.60
2019-02-12T05:35:11.741Z,2.80
2019-02-12T05:37:41.140Z,2.70
2019-02-12T05:40:10.737Z,2.70
2019-02-12T05:42:40.505Z,2.70
2019-02-12T05:45:10.654Z,2.60
2019-02-12T05:47:40.084Z,2.60
2019-02-12T05:50:11.373Z,2.60
2019-02-12T05:52:40.811Z,2.60
2019-02-12T05:55:10.705Z,2.60
2019-02-12T05:57:40.063Z,2.60
2019-02-12T06:00:12.131Z,2.50
2019-02-12T06:02:41.839Z,2.40
2019-02-12T06:05:11.992Z,2.40
2019-02-12T06:07:41.371Z,2.40
2019-02-12T06:10:11.243Z,2.40
2019-02-12T06:12:40.606Z,2.40
2019-02-12T06:15:10.045Z,2.30
2019-02-12T06:17:39.421Z,2.30
2019-02-12T06:20:08.832Z,2.30
2019-02-12T06:22:38.198Z,2.40
2019-02-12T06:25:08.398Z,2.40
2019-02-12T06:27:37.908Z,2.40
2019-02-12T06:30:07.697Z,2.40
2019-02-12T06:32:37.096Z,2.40
2019-02-12T06:35:06.670Z,2.40
2019-02-12T06:37:36.074Z,2.30
2019-02-12T06:40:05.990Z,2.40
2019-02-12T06:42:35.412Z,2.30
2019-02-12T06:45:04.987Z,2.30
2019-02-12T06:47:34.422Z,2.30
2019-02-12T06:50:03.973Z,2.30
2019-02-12T06:52:33.702Z,2.30
2019-02-12T06:55:03.134Z,2.40
2019-02-12T06:57:32.783Z,2.40
2019-02-12T07:00:02.476Z,2.40
2019-02-12T07:03:07.950Z,2.40
2019-02-12T07:05:37.353Z,2.60
2019-02-12T07:08:49.870Z,2.60
2019-02-12T07:11:46.518Z,2.60
2019-02-12T07:14:44.049Z,2.70
2019-02-12T07:17:53.877Z,2.70
2019-02-12T07:20:46.285Z,2.80
2019-02-12T07:23:51.105Z,2.70
2019-02-12T07:27:10.619Z,2.70
2019-02-12T07:30:12.026Z,2.70
2019-02-12T07:33:13.416Z,2.80
2019-02-12T07:36:07.413Z,2.70
2019-02-12T07:39:06.736Z,2.70
2019-02-12T07:41:59.327Z,2.70
2019-02-12T07:45:04.184Z,2.70
2019-02-12T07:48:09.297Z,2.70
2019-02-12T07:51:21.439Z,2.80
2019-02-12T07:54:17.874Z,2.80
2019-02-12T07:57:58.968Z,2.80
2019-02-12T08:01:07.413Z,2.90
2019-02-12T08:04:16.488Z,3.00
2019-02-12T08:07:14.645Z,3.10
2019-02-12T08:10:45.945Z,3.10
2019-02-12T08:13:40.510Z,3.20
2019-02-12T08:16:38.548Z,3.30
2019-02-12T08:19:33.571Z,3.40
2019-02-12T08:22:47.034Z,3.60
2019-02-12T08:25:55.944Z,3.70
2019-02-12T08:28:56.416Z,3.80
2019-02-12T08:32:03.943Z,4.10
2019-02-12T08:35:28.211Z,4.10
2019-02-12T08:38:53.649Z,4.20
2019-02-12T08:42:09.715Z,4.20
2019-02-12T08:45:33.605Z,4.00
2019-02-12T08:48:31.647Z,4.10
2019-02-12T08:51:41.653Z,4.10
2019-02-12T08:54:44.867Z,4.20
2019-02-12T08:57:57.793Z,4.10
2019-02-12T09:00:52.389Z,4.20
2019-02-12T09:04:01.111Z,4.20
2019-02-12T09:07:10.302Z,4.20
2019-02-12T09:10:05.652Z,4.20
2019-02-12T09:13:20.727Z,4.10
2019-02-12T09:16:26.635Z,4.10
2019-02-12T09:19:19.688Z,4.30
2019-02-12T09:22:33.535Z,4.30
2019-02-12T09:25:39.778Z,4.40
2019-02-12T09:29:08.359Z,4.60
2019-02-12T09:32:23.404Z,4.60
2019-02-12T09:35:15.977Z,4.70
2019-02-12T09:38:47.282Z,4.70
2019-02-12T09:41:53.616Z,4.90
2019-02-12T09:45:05.644Z,4.80
2019-02-12T09:48:11.634Z,4.80
2019-02-12T09:51:04.518Z,4.90
2019-02-12T09:54:11.647Z,5.10
2019-02-12T09:57:30.730Z,5.20
2019-02-12T10:00:14.793Z,5.30
2019-02-12T10:03:16.428Z,5.40
2019-02-12T10:06:24.332Z,5.60
2019-02-12T10:09:23.744Z,5.50
2019-02-12T10:12:32.960Z,5.60
2019-02-12T10:15:34.060Z,5.40
2019-02-12T10:18:43.830Z,5.40
2019-02-12T10:21:35.710Z,5.60
2019-02-12T10:24:43.065Z,5.60
2019-02-12T10:28:02.824Z,5.60
2019-02-12T10:31:13.476Z,5.60
2019-02-12T10:33:42.866Z,5.80
2019-02-12T10:36:12.257Z,6.10
2019-02-12T10:38:41.633Z,6.10
2019-02-12T10:41:11.026Z,5.90
2019-02-12T10:43:40.405Z,5.90
2019-02-12T10:46:10.027Z,5.40
2019-02-12T10:48:39.441Z,5.60
2019-02-12T10:51:08.884Z,5.50
2019-02-12T10:53:38.301Z,5.60
2019-02-12T10:56:07.940Z,5.70
2019-02-12T10:58:37.945Z,5.70
2019-02-12T11:01:07.572Z,5.50
2019-02-12T11:03:36.969Z,5.40
2019-02-12T11:06:06.429Z,5.10
2019-02-12T11:08:35.816Z,5.20
2019-02-12T11:11:05.138Z,5.20
2019-02-12T11:13:34.530Z,5.30
2019-02-12T11:16:06.752Z,5.20
2019-02-12T11:18:36.214Z,5.50
2019-02-12T11:21:11.660Z,5.50
2019-02-12T11:23:36.959Z,5.30
2019-02-12T11:26:06.326Z,5.30
2019-02-12T11:28:35.823Z,5.40
2019-02-12T11:31:05.276Z,5.70
2019-02-12T11:33:35.368Z,5.50
2019-02-12T11:36:05.626Z,5.30
2019-02-12T11:38:35.757Z,5.20
2019-02-12T11:41:06.228Z,5.50
2019-02-12T11:43:36.967Z,5.70
2019-02-12T11:46:06.426Z,5.60
2019-02-12T11:48:36.343Z,5.60
2019-02-12T11:51:05.993Z,5.50
2019-02-12T11:53:35.361Z,5.40
2019-02-12T11:56:04.765Z,5.40
2019-02-12T11:58:34.426Z,5.50
2019-02-12T12:01:07.010Z,5.60
2019-02-12T12:03:36.677Z,5.50
2019-02-12T12:06:06.301Z,5.60
2019-02-12T12:08:35.711Z,5.50
2019-02-12T12:11:05.437Z,5.50
2019-02-12T12:13:35.142Z,5.60
2019-02-12T12:16:04.556Z,5.50
2019-02-12T12:18:33.959Z,5.70
2019-02-12T12:21:03.325Z,5.90
2019-02-12T12:23:32.741Z,6.20
2019-02-12T12:26:02.101Z,6.20
2019-02-12T12:28:31.511Z,6.10
2019-02-12T12:31:00.900Z,6.10
2019-02-12T12:33:30.609Z,6.20
2019-02-12T12:35:59.997Z,6.40
2019-02-12T12:38:29.369Z,6.40
2019-02-12T12:40:58.775Z,6.50
2019-02-12T12:43:29.837Z,6.40
2019-02-12T12:46:00.035Z,5.90
2019-02-12T12:48:29.709Z,5.80
2019-02-12T12:50:59.123Z,6.10
2019-02-12T12:53:28.505Z,6.20
2019-02-12T12:55:57.915Z,6.50
2019-02-12T12:58:27.329Z,6.60
2019-02-12T13:00:56.734Z,6.30
2019-02-12T13:03:26.445Z,6.30
2019-02-12T13:05:55.841Z,6.30
2019-02-12T13:08:25.241Z,6.30
2019-02-12T13:10:54.622Z,6.40
2019-02-12T13:13:23.981Z,6.30
2019-02-12T13:15:53.425Z,6.40
2019-02-12T13:18:23.465Z,6.40
2019-02-12T13:20:53.187Z,6.40
2019-02-12T13:23:22.593Z,6.50
2019-02-12T13:25:51.942Z,6.50
2019-02-12T13:28:21.621Z,6.50
2019-02-12T13:30:51.008Z,6.30
2019-02-12T13:33:20.653Z,6.50
2019-02-12T13:35:50.017Z,6.50
2019-02-12T13:38:19.410Z,6.60
2019-02-12T13:40:48.773Z,6.30
2019-02-12T13:43:18.202Z,6.40
2019-02-12T13:45:47.841Z,6.30
2019-02-12T13:48:17.704Z,6.40
2019-02-12T13:50:47.105Z,6.60
2019-02-12T13:53:17.117Z,6.50
2019-02-12T13:55:46.829Z,6.60
2019-02-12T13:58:16.216Z,6.60
2019-02-12T14:00:45.885Z,6.70
2019-02-12T14:03:22.282Z,6.70
2019-02-12T14:05:46.377Z,6.40
2019-02-12T14:08:15.778Z,6.30
2019-02-12T14:10:45.442Z,6.30
2019-02-12T14:13:15.662Z,6.20
2019-02-12T14:15:45.076Z,6.20
2019-02-12T14:18:14.757Z,6.20
2019-02-12T14:20:44.180Z,6.10
2019-02-12T14:23:13.558Z,6.10
2019-02-12T14:25:42.937Z,6.20
2019-02-12T14:28:12.289Z,6.20
2019-02-12T14:30:41.917Z,6.20
2019-02-12T14:33:11.581Z,6.30
2019-02-12T14:35:41.076Z,6.30
2019-02-12T14:38:10.747Z,6.10
2019-02-12T14:40:40.413Z,6.00
2019-02-12T14:43:14.015Z,6.10
2019-02-12T14:45:41.107Z,6.10
2019-02-12T14:48:10.796Z,6.00
2019-02-12T14:50:40.153Z,5.90
2019-02-12T14:53:09.494Z,6.00
2019-02-12T14:55:38.861Z,5.60
2019-02-12T14:58:08.305Z,5.90
2019-02-12T15:00:37.870Z,5.90
2019-02-12T15:03:07.263Z,6.10
2019-02-12T15:05:36.675Z,6.00
2019-02-12T15:08:06.456Z,5.90
2019-02-12T15:10:36.063Z,5.90
2019-02-12T15:13:05.848Z,6.00
2019-02-12T15:15:35.208Z,6.00
2019-02-12T15:18:04.619Z,6.00
2019-02-12T15:20:34.049Z,6.20
2019-02-12T15:23:03.453Z,6.00
2019-02-12T15:25:32.835Z,5.80
2019-02-12T15:28:02.584Z,5.80
2019-02-12T15:30:31.985Z,5.70
2019-02-12T15:33:01.637Z,5.60
2019-02-12T15:35:31.290Z,5.60
2019-02-12T15:38:00.876Z,5.50
2019-02-12T15:40:30.243Z,5.40
2019-02-12T15:42:59.886Z,5.30
2019-02-12T15:45:29.308Z,5.30
2019-02-12T15:47:58.721Z,5.20
2019-02-12T15:50:28.365Z,5.20
2019-02-12T15:52:57.794Z,5.10
2019-02-12T15:55:27.183Z,5.10
2019-02-12T15:57:56.616Z,5.00
2019-02-12T16:00:25.981Z,5.10
2019-02-12T16:02:56.103Z,5.10
2019-02-12T16:05:26.436Z,5.10
2019-02-12T16:07:55.944Z,5.10
2019-02-12T16:10:25.355Z,5.10
2019-02-12T16:12:54.768Z,5.10
2019-02-12T16:15:24.831Z,5.10
2019-02-12T16:17:54.505Z,5.10
2019-02-12T16:20:24.159Z,5.10
2019-02-12T16:22:53.854Z,5.00
2019-02-12T16:25:23.278Z,5.00
2019-02-12T16:27:52.652Z,5.00
2019-02-12T16:30:22.347Z,5.00
2019-02-12T16:32:51.739Z,5.00
2019-02-12T16:35:21.401Z,4.90
2019-02-12T16:37:50.789Z,4.90
2019-02-12T16:40:20.557Z,4.80
2019-02-12T16:42:49.921Z,4.80
2019-02-12T16:45:22.973Z,4.80
2019-02-12T16:47:52.361Z,4.70
2019-02-12T16:50:22.022Z,4.60
2019-02-12T16:52:51.765Z,4.60
2019-02-12T16:55:21.171Z,4.60
2019-02-12T16:57:50.680Z,4.60
2019-02-12T17:00:20.608Z,4.60
2019-02-12T17:02:50.255Z,4.60
2019-02-12T17:05:19.777Z,4.50
2019-02-12T17:07:49.525Z,4.60
2019-02-12T17:10:18.996Z,4.60
2019-02-12T17:12:48.408Z,4.60
2019-02-12T17:15:17.782Z,4.60
2019-02-12T17:17:47.420Z,4.60
2019-02-12T17:20:18.105Z,4.70
2019-02-12T17:22:47.764Z,4.60
2019-02-12T17:25:17.172Z,4.60
2019-02-12T17:27:48.035Z,4.60
2019-02-12T17:30:17.705Z,4.50
2019-02-12T17:32:47.069Z,4.50
2019-02-12T17:35:16.760Z,4.40
2019-02-12T17:37:46.134Z,4.40
2019-02-12T17:40:15.586Z,4.40
2019-02-12T17:42:44.953Z,4.30
2019-02-12T17:45:14.712Z,4.30
2019-02-12T17:47:44.106Z,4.30
2019-02-12T17:50:13.710Z,4.30
2019-02-12T17:52:43.480Z,4.30
2019-02-12T17:55:12.906Z,4.30
2019-02-12T17:57:42.267Z,4.30
2019-02-12T18:00:15.681Z,4.30
2019-02-12T18:02:44.995Z,4.30
2019-02-12T18:05:14.405Z,4.20
2019-02-12T18:07:43.805Z,4.20
2019-02-12T18:10:13.221Z,4.20
2019-02-12T18:12:42.593Z,4.10
2019-02-12T18:15:12.373Z,4.10
2019-02-12T18:17:41.741Z,4.20
2019-02-12T18:20:12.888Z,4.10
2019-02-12T18:22:42.825Z,4.10
2019-02-12T18:25:12.251Z,4.20
2019-02-12T18:27:41.914Z,4.20
2019-02-12T18:30:13.177Z,4.20
2019-02-12T18:32:42.635Z,4.10
2019-02-12T18:35:12.092Z,4.10
2019-02-12T18:37:41.469Z,4.10
2019-02-12T18:40:11.486Z,4.10
2019-02-12T18:42:40.979Z,4.20
2019-02-12T18:45:12.481Z,4.20
2019-02-12T18:47:41.884Z,4.20
2019-02-12T18:50:12.011Z,4.20
2019-02-12T18:52:41.397Z,4.20
2019-02-12T18:55:12.158Z,4.20
2019-02-12T18:57:41.513Z,4.20
2019-02-12T19:00:15.788Z,4.20
2019-02-12T19:02:45.433Z,4.20
2019-02-12T19:05:14.825Z,4.20
2019-02-12T19:07:44.228Z,4.20
2019-02-12T19:10:14.049Z,4.20
2019-02-12T19:12:43.443Z,4.20
2019-02-12T19:15:14.647Z,4.20
2019-02-12T19:17:46.157Z,4.20
2019-02-12T19:20:15.825Z,4.20
2019-02-12T19:22:45.225Z,4.20
2019-02-12T19:25:14.873Z,4.10
2019-02-12T19:27:44.391Z,4.10
2019-02-12T19:30:16.147Z,4.10
2019-02-12T19:32:45.895Z,4.10
2019-02-12T19:35:15.293Z,4.10
2019-02-12T19:37:44.673Z,4.10
2019-02-12T19:40:14.073Z,4.10
2019-02-12T19:42:43.450Z,4.10
2019-02-12T19:45:12.933Z,4.10
2019-02-12T19:47:42.233Z,4.00
2019-02-12T19:50:11.671Z,4.00
2019-02-12T19:52:41.084Z,4.00
2019-02-12T19:55:10.470Z,4.00
2019-02-12T19:57:39.961Z,4.00
2019-02-12T20:00:12.613Z,4.00
2019-02-12T20:02:42.270Z,4.00
2019-02-12T20:05:11.961Z,4.00
2019-02-12T20:07:41.384Z,3.90
2019-02-12T20:10:11.232Z,3.90
2019-02-12T20:12:40.855Z,3.90
2019-02-12T20:15:11.328Z,3.90
2019-02-12T20:17:40.962Z,3.90
2019-02-12T20:20:11.438Z,3.90
2019-02-12T20:22:41.094Z,3.90
2019-02-12T20:25:10.586Z,3.80
2019-02-12T20:27:39.975Z,3.80
2019-02-12T20:30:11.702Z,3.90
2019-02-12T20:32:41.078Z,3.80
2019-02-12T20:35:11.730Z,3.90
2019-02-12T20:37:41.166Z,3.80
2019-02-12T20:40:11.747Z,3.80
2019-02-12T20:42:41.106Z,3.80
2019-02-12T20:45:12.594Z,3.70
2019-02-12T20:47:41.953Z,3.60
2019-02-12T20:50:12.702Z,3.50
2019-02-12T20:52:42.176Z,3.40
2019-02-12T20:55:11.797Z,3.40
2019-02-12T20:57:41.184Z,3.30
2019-02-12T21:00:13.451Z,3.40
2019-02-12T21:02:42.812Z,3.40
2019-02-12T21:05:13.188Z,3.40
2019-02-12T21:07:42.867Z,3.40
2019-02-12T21:10:14.297Z,3.40
2019-02-12T21:12:43.617Z,3.40
2019-02-12T21:15:15.224Z,3.40
2019-02-12T21:17:44.954Z,3.50
2019-02-12T21:20:14.431Z,3.50
2019-02-12T21:22:43.817Z,3.50
2019-02-12T21:25:13.216Z,3.40
2019-02-12T21:27:42.601Z,3.40
2019-02-12T21:30:14.125Z,3.40
2019-02-12T21:32:43.516Z,3.40
2019-02-12T21:35:13.442Z,3.30
2019-02-12T21:37:43.157Z,3.30
2019-02-12T21:40:15.254Z,3.30
2019-02-12T21:42:45.031Z,3.30
2019-02-12T21:45:14.441Z,3.30
2019-02-12T21:47:43.848Z,3.30
2019-02-12T21:50:13.618Z,3.20
2019-02-12T21:52:43.277Z,3.20
2019-02-12T21:55:12.733Z,3.10
2019-02-12T21:57:42.679Z,3.20
2019-02-12T22:00:14.065Z,3.10
2019-02-12T22:02:43.501Z,3.10
2019-02-12T22:05:13.419Z,3.00
2019-02-12T22:07:43.395Z,3.00
2019-02-12T22:10:14.948Z,3.00
2019-02-12T22:12:44.624Z,2.90
2019-02-12T22:15:14.296Z,2.80
2019-02-12T22:17:43.673Z,2.80
2019-02-12T22:20:14.705Z,2.70
2019-02-12T22:22:44.402Z,2.70
2019-02-12T22:25:14.038Z,2.70
2019-02-12T22:27:43.441Z,2.70
2019-02-12T22:30:17.653Z,2.60
2019-02-12T22:32:47.053Z,2.50
2019-02-12T22:35:16.422Z,2.40
2019-02-12T22:37:45.817Z,2.40
2019-02-12T22:40:15.364Z,2.30
2019-02-12T22:42:44.757Z,2.30
2019-02-12T22:45:15.905Z,2.30
2019-02-12T22:47:45.287Z,2.30
2019-02-12T22:50:15.446Z,2.30
2019-02-12T22:52:44.845Z,2.30
2019-02-12T22:55:14.227Z,2.20
2019-02-12T22:57:49.248Z,2.20
2019-02-12T23:00:24.584Z,2.20
2019-02-12T23:02:53.975Z,2.20
2019-02-12T23:05:23.917Z,2.10
2019-02-12T23:07:53.257Z,2.10
2019-02-12T23:10:22.633Z,2.10
2019-02-12T23:12:52.301Z,2.10
2019-02-12T23:15:22.226Z,2.10
2019-02-12T23:17:51.725Z,2.00
2019-02-12T23:20:21.083Z,2.00
2019-02-12T23:22:50.577Z,2.00
2019-02-12T23:25:19.971Z,2.00
2019-02-12T23:27:56.979Z,2.00
2019-02-12T23:30:20.388Z,2.00
2019-02-12T23:32:49.915Z,1.90
2019-02-12T23:35:19.286Z,1.90
2019-02-12T23:37:48.696Z,1.70
2019-02-12T23:40:18.358Z,1.70
2019-02-12T23:42:48.101Z,1.70
2019-02-12T23:45:17.777Z,1.70
2019-02-12T23:47:47.176Z,1.70
2019-02-12T23:50:16.650Z,1.70
2019-02-12T23:52:46.034Z,1.60
2019-02-12T23:55:15.705Z,1.60
2019-02-12T23:57:45.071Z,1.50
